createdAt,value
2022-09-27T03:02:38.214Z,0.50
2022-09-27T03:05:34.341Z,0.50
2022-09-27T03:08:04.567Z,1.35
2022-09-27T03:10:32.732Z,0.70
2022-09-27T03:13:00.646Z,1.70
2022-09-27T03:15:30.846Z,1.13
2022-09-27T03:18:01.355Z,1.75
2022-09-27T03:20:47.878Z,0.60
2022-09-27T03:23:18.100Z,0.50
2022-09-27T03:25:46.391Z,0.50
2022-09-27T03:28:14.493Z,1.35
2022-09-27T03:30:45.401Z,1.80
2022-09-27T03:33:17.305Z,1.17
2022-09-27T03:35:45.200Z,0.85
2022-09-27T03:38:14.993Z,2.13
2022-09-27T03:40:43.020Z,0.45
2022-09-27T03:43:11.876Z,1.23
2022-09-27T03:45:39.747Z,0.38
2022-09-27T03:48:10.774Z,3.25
2022-09-27T03:50:39.963Z,0.45
2022-09-27T03:53:07.971Z,0.50
2022-09-27T03:55:36.296Z,0.57
2022-09-27T03:58:04.115Z,1.77
2022-09-27T04:00:32.786Z,0.40
2022-09-27T04:03:01.749Z,0.32
2022-09-27T04:05:30.699Z,1.25
2022-09-27T04:08:07.794Z,1.00
2022-09-27T04:10:36.740Z,0.40
2022-09-27T04:13:05.245Z,1.52
2022-09-27T04:15:39.361Z,1.48
2022-09-27T04:18:25.615Z,1.50
2022-09-27T04:21:09.149Z,0.30
2022-09-27T04:23:43.371Z,0.73
2022-09-27T04:26:15.210Z,0.63
2022-09-27T04:29:03.634Z,0.60
2022-09-27T04:31:33.439Z,0.50
2022-09-27T04:34:12.353Z,0.63
2022-09-27T04:36:39.243Z,1.98
2022-09-27T04:39:11.834Z,2.10
2022-09-27T04:41:45.416Z,0.80
2022-09-27T04:44:14.202Z,0.80
2022-09-27T04:46:45.889Z,0.80
2022-09-27T04:49:14.177Z,1.17
2022-09-27T04:51:42.094Z,0.60
2022-09-27T04:54:11.244Z,0.60
2022-09-27T04:56:49.556Z,1.37
2022-09-27T04:59:17.575Z,0.87
2022-09-27T05:01:46.154Z,1.48
2022-09-27T05:04:29.942Z,0.73
2022-09-27T05:06:58.271Z,0.90
2022-09-27T05:09:37.313Z,0.98
2022-09-27T05:12:07.729Z,1.50
2022-09-27T05:14:57.543Z,1.27
2022-09-27T05:17:52.521Z,0.70
2022-09-27T05:20:39.839Z,6.82
2022-09-27T05:23:25.911Z,1.17
2022-09-27T05:25:56.436Z,1.37
2022-09-27T05:28:25.116Z,1.00
2022-09-27T05:30:52.979Z,1.10
2022-09-27T05:33:22.470Z,0.60
2022-09-27T05:35:54.276Z,0.63
2022-09-27T05:38:26.000Z,1.20
2022-09-27T05:40:58.795Z,1.07
2022-09-27T05:43:27.918Z,0.75
2022-09-27T05:45:58.648Z,0.93
2022-09-27T05:48:30.228Z,2.10
2022-09-27T05:51:05.802Z,0.60
2022-09-27T05:53:36.479Z,0.85
2022-09-27T05:56:08.347Z,0.50
2022-09-27T05:58:54.676Z,0.90
2022-09-27T06:01:23.979Z,1.80
2022-09-27T06:04:30.319Z,0.60
2022-09-27T06:07:20.836Z,1.10
2022-09-27T06:09:48.704Z,2.85
2022-09-27T06:12:20.340Z,0.40
2022-09-27T06:14:48.390Z,1.65
2022-09-27T06:17:28.952Z,0.50
2022-09-27T06:19:57.050Z,0.95
2022-09-27T06:22:25.043Z,1.70
2022-09-27T06:25:00.213Z,0.68
2022-09-27T06:27:33.479Z,1.05
2022-09-27T06:30:07.623Z,0.63
2022-09-27T06:32:47.269Z,1.55
2022-09-27T06:35:25.028Z,0.95
2022-09-27T06:37:53.424Z,0.95
2022-09-27T06:40:22.444Z,0.45
2022-09-27T06:43:12.132Z,0.50
2022-09-27T06:46:04.595Z,0.77
2022-09-27T06:48:48.098Z,1.02
2022-09-27T06:51:17.230Z,0.50
2022-09-27T06:53:45.031Z,1.70
2022-09-27T06:56:13.424Z,0.80
2022-09-27T06:59:10.928Z,0.77
2022-09-27T07:01:45.810Z,1.25
2022-09-27T07:04:32.818Z,0.50
2022-09-27T07:07:29.308Z,0.35
2022-09-27T07:09:57.351Z,3.10
2022-09-27T07:12:28.207Z,0.50
2022-09-27T07:14:57.872Z,1.75
2022-09-27T07:17:27.762Z,1.27
2022-09-27T07:19:55.699Z,1.08
2022-09-27T07:22:23.639Z,0.73
2022-09-27T07:24:59.252Z,1.63
2022-09-27T07:27:27.384Z,1.38
2022-09-27T07:29:57.540Z,0.73
2022-09-27T07:32:26.454Z,2.50
2022-09-27T07:34:55.084Z,0.93
2022-09-27T07:37:23.607Z,1.38
2022-09-27T07:39:51.548Z,2.08
2022-09-27T07:42:20.520Z,0.50
2022-09-27T07:44:52.014Z,1.25
2022-09-27T07:47:33.449Z,2.03
2022-09-27T07:50:11.757Z,0.60
2022-09-27T07:52:46.820Z,2.05
2022-09-27T07:55:28.783Z,2.28
2022-09-27T07:58:08.784Z,0.80
2022-09-27T08:00:37.917Z,1.45
2022-09-27T08:03:08.699Z,1.02
2022-09-27T08:05:38.859Z,1.42
2022-09-27T08:08:07.051Z,0.60
2022-09-27T08:10:36.368Z,1.55
2022-09-27T08:13:06.050Z,0.93
2022-09-27T08:15:36.900Z,1.85
2022-09-27T08:18:04.954Z,2.45
2022-09-27T08:21:01.871Z,1.15
2022-09-27T08:23:29.845Z,1.00
2022-09-27T08:26:20.278Z,0.88
2022-09-27T08:29:12.653Z,0.85
2022-09-27T08:31:44.435Z,3.38
2022-09-27T08:34:12.865Z,0.70
2022-09-27T08:36:44.699Z,0.85
2022-09-27T08:39:12.816Z,0.40
2022-09-27T08:41:54.096Z,1.75
2022-09-27T08:44:30.585Z,0.60
2022-09-27T08:47:16.190Z,0.93
2022-09-27T08:49:50.332Z,1.80
2022-09-27T08:52:23.803Z,2.75
2022-09-27T08:54:52.901Z,0.50
2022-09-27T08:57:23.950Z,0.47
2022-09-27T09:00:04.711Z,0.75
2022-09-27T09:02:32.678Z,1.48
2022-09-27T09:05:08.102Z,0.47
2022-09-27T09:07:58.415Z,0.60
2022-09-27T09:10:58.872Z,0.40
2022-09-27T09:13:41.289Z,2.78
2022-09-27T09:16:17.632Z,0.40
2022-09-27T09:19:05.465Z,0.50
2022-09-27T09:21:49.400Z,1.05
2022-09-27T09:24:28.981Z,2.03
2022-09-27T09:27:03.251Z,0.40
2022-09-27T09:29:45.425Z,0.60
2022-09-27T09:32:28.101Z,0.88
2022-09-27T09:35:01.126Z,1.05
2022-09-27T09:37:37.063Z,1.83
2022-09-27T09:40:18.245Z,1.75
2022-09-27T09:42:50.016Z,1.33
2022-09-27T09:45:24.082Z,0.82
2022-09-27T09:47:58.771Z,0.65
2022-09-27T09:50:29.540Z,0.40
2022-09-27T09:53:05.703Z,0.65
2022-09-27T09:55:37.296Z,1.17
2022-09-27T09:58:19.805Z,1.10
2022-09-27T10:00:54.661Z,1.40
2022-09-27T10:03:24.385Z,0.57
2022-09-27T10:05:52.567Z,0.95
2022-09-27T10:08:22.736Z,1.25
2022-09-27T10:11:01.932Z,0.40
2022-09-27T10:13:48.904Z,0.40
2022-09-27T10:16:20.449Z,2.00
2022-09-27T10:18:50.153Z,0.88
2022-09-27T10:21:22.859Z,0.50
2022-09-27T10:24:06.271Z,0.57
2022-09-27T10:27:00.339Z,0.93
2022-09-27T10:29:37.083Z,0.50
2022-09-27T10:32:20.033Z,0.70
2022-09-27T10:34:48.681Z,0.75
2022-09-27T10:37:19.043Z,0.73
2022-09-27T10:39:59.747Z,1.90
2022-09-27T10:42:38.531Z,1.00
2022-09-27T10:45:28.501Z,1.55
2022-09-27T10:48:06.127Z,0.95
2022-09-27T10:50:59.188Z,0.75
2022-09-27T10:53:53.967Z,1.02
2022-09-27T10:56:32.236Z,0.70
2022-09-27T10:59:02.923Z,0.65
2022-09-27T11:01:45.297Z,0.70
2022-09-27T11:04:29.086Z,1.38
2022-09-27T11:07:15.334Z,1.10
2022-09-27T11:09:50.073Z,0.75
2022-09-27T11:12:20.729Z,1.02
2022-09-27T11:15:02.347Z,0.75
2022-09-27T11:17:38.848Z,3.72
2022-09-27T11:20:22.374Z,1.73
2022-09-27T11:23:08.483Z,1.73
2022-09-27T11:25:44.586Z,1.80
2022-09-27T11:28:21.875Z,0.80
2022-09-27T11:30:59.937Z,1.20
2022-09-27T11:33:49.738Z,1.05
2022-09-27T11:36:34.287Z,2.13
2022-09-27T11:39:10.130Z,0.90
2022-09-27T11:41:57.755Z,1.85
2022-09-27T11:44:53.343Z,3.80
2022-09-27T11:47:46.462Z,3.25
2022-09-27T11:50:30.575Z,1.00
2022-09-27T11:53:15.334Z,1.98
2022-09-27T11:55:54.545Z,1.17
2022-09-27T11:58:29.568Z,5.15
2022-09-27T12:01:11.544Z,2.15
2022-09-27T12:04:00.536Z,2.85
2022-09-27T12:06:38.323Z,1.02
2022-09-27T12:09:11.081Z,1.25
2022-09-27T12:11:44.137Z,2.25
2022-09-27T12:14:23.577Z,2.13
2022-09-27T12:16:58.414Z,1.02
2022-09-27T12:19:31.580Z,2.50
2022-09-27T12:22:07.487Z,1.77
2022-09-27T12:24:40.798Z,2.30
2022-09-27T12:27:26.391Z,4.75
2022-09-27T12:29:56.380Z,2.17
2022-09-27T12:32:28.423Z,2.17
2022-09-27T12:35:04.433Z,1.17
2022-09-27T12:37:37.547Z,1.33
2022-09-27T12:40:16.106Z,1.02
2022-09-27T12:42:51.534Z,1.55
2022-09-27T12:45:36.331Z,0.55
2022-09-27T12:48:11.228Z,1.20
2022-09-27T12:50:45.006Z,1.42
2022-09-27T12:53:19.959Z,0.73
2022-09-27T12:56:11.710Z,0.80
2022-09-27T12:59:24.516Z,0.80
2022-09-27T13:02:27.575Z,3.05
2022-09-27T13:05:11.956Z,0.95
2022-09-27T13:07:52.425Z,0.65
2022-09-27T13:10:42.571Z,0.85
2022-09-27T13:13:26.409Z,0.50
2022-09-27T13:15:59.581Z,0.60
2022-09-27T13:18:35.087Z,0.90
2022-09-27T13:21:04.931Z,1.30
2022-09-27T13:24:03.587Z,0.50
2022-09-27T13:26:51.139Z,0.50
2022-09-27T13:29:28.534Z,1.55
2022-09-27T13:32:22.554Z,0.70
2022-09-27T13:35:23.056Z,0.75
2022-09-27T13:37:59.352Z,1.38
2022-09-27T13:40:37.278Z,0.93
2022-09-27T13:43:42.700Z,0.65
2022-09-27T13:46:25.186Z,0.70
2022-09-27T13:48:56.987Z,0.82
2022-09-27T13:51:38.110Z,0.70
2022-09-27T13:54:10.711Z,0.75
2022-09-27T13:56:53.823Z,0.90
2022-09-27T13:59:32.398Z,0.70
2022-09-27T14:02:28.270Z,1.02
2022-09-27T14:04:59.391Z,2.25
2022-09-27T14:07:32.049Z,1.67
2022-09-27T14:10:02.452Z,1.33
2022-09-27T14:12:40.341Z,2.03
2022-09-27T14:15:20.298Z,0.60
2022-09-27T14:17:48.696Z,1.75
2022-09-27T14:20:37.025Z,0.82
2022-09-27T14:23:06.772Z,1.30
2022-09-27T14:25:40.227Z,1.38
2022-09-27T14:28:23.755Z,1.00
2022-09-27T14:31:17.401Z,1.52
2022-09-27T14:34:15.257Z,0.80
2022-09-27T14:37:07.960Z,0.90
2022-09-27T14:39:53.602Z,1.02
2022-09-27T14:42:36.275Z,1.10
2022-09-27T14:45:25.675Z,0.80
2022-09-27T14:47:53.846Z,1.42
2022-09-27T14:50:27.750Z,1.20
2022-09-27T14:52:57.547Z,0.80
2022-09-27T14:55:28.627Z,1.00
2022-09-27T14:57:58.592Z,2.25
2022-09-27T15:00:31.263Z,1.50
2022-09-27T15:03:03.060Z,2.90
2022-09-27T15:05:33.905Z,1.30
2022-09-27T15:08:05.723Z,1.38
2022-09-27T15:10:36.292Z,1.17
2022-09-27T15:13:06.875Z,1.45
2022-09-27T15:15:39.804Z,2.97
2022-09-27T15:18:32.793Z,1.38
2022-09-27T15:21:01.325Z,1.80
2022-09-27T15:23:30.856Z,0.80
2022-09-27T15:26:03.919Z,0.88
2022-09-27T15:28:31.794Z,1.13
2022-09-27T15:31:02.016Z,3.33
2022-09-27T15:33:32.419Z,1.08
2022-09-27T15:36:03.841Z,0.80
2022-09-27T15:38:33.438Z,1.17
2022-09-27T15:41:05.326Z,2.08
2022-09-27T15:43:35.960Z,1.20
2022-09-27T15:46:25.271Z,1.45
2022-09-27T15:49:27.320Z,2.55
2022-09-27T15:51:56.773Z,1.40
2022-09-27T15:54:27.048Z,3.05
2022-09-27T15:56:56.902Z,1.23
2022-09-27T15:59:27.025Z,2.53
2022-09-27T16:01:58.561Z,2.22
2022-09-27T16:04:26.911Z,1.02
2022-09-27T16:06:55.323Z,1.10
2022-09-27T16:09:23.764Z,2.65
2022-09-27T16:11:52.002Z,1.77
2022-09-27T16:14:20.248Z,2.90
2022-09-27T16:16:50.787Z,2.08
2022-09-27T16:19:20.186Z,1.13
2022-09-27T16:21:48.906Z,3.17
2022-09-27T16:24:18.064Z,2.47
2022-09-27T16:26:46.090Z,1.95
2022-09-27T16:29:15.913Z,1.50
2022-09-27T16:31:44.308Z,3.45
2022-09-27T16:34:13.101Z,1.73
2022-09-27T16:36:42.284Z,1.40
2022-09-27T16:39:13.755Z,1.20
2022-09-27T16:41:42.261Z,1.13
2022-09-27T16:44:12.045Z,1.70
2022-09-27T16:46:41.343Z,2.88
2022-09-27T16:49:30.309Z,1.98
2022-09-27T16:52:01.717Z,3.17
2022-09-27T16:54:30.352Z,1.60
2022-09-27T16:57:00.068Z,3.33
2022-09-27T16:59:28.683Z,4.95
2022-09-27T17:01:58.029Z,4.13
2022-09-27T17:04:27.358Z,2.90
2022-09-27T17:06:55.184Z,3.33
2022-09-27T17:09:24.879Z,3.28
2022-09-27T17:11:52.792Z,3.03
2022-09-27T17:14:20.839Z,2.83
2022-09-27T17:16:49.450Z,3.75
2022-09-27T17:19:18.213Z,6.78
2022-09-27T17:21:46.520Z,6.32
2022-09-27T17:24:14.539Z,6.90
2022-09-27T17:26:44.135Z,3.67
2022-09-27T17:29:13.304Z,2.20
2022-09-27T17:31:42.628Z,1.63
2022-09-27T17:34:12.972Z,2.70
2022-09-27T17:36:43.069Z,1.73
2022-09-27T17:39:13.535Z,2.45
2022-09-27T17:41:43.703Z,2.70
2022-09-27T17:44:14.315Z,2.15
2022-09-27T17:47:09.283Z,3.70
2022-09-27T17:49:54.833Z,3.53
2022-09-27T17:52:23.438Z,5.28
2022-09-27T17:54:51.646Z,3.13
2022-09-27T17:57:20.777Z,2.30
2022-09-27T17:59:48.577Z,2.13
2022-09-27T18:02:16.458Z,3.95
2022-09-27T18:04:44.750Z,2.22
2022-09-27T18:07:13.228Z,1.83
2022-09-27T18:09:41.066Z,4.25
2022-09-27T18:12:08.994Z,2.60
2022-09-27T18:14:38.307Z,3.35
2022-09-27T18:17:06.228Z,3.20
2022-09-27T18:19:34.129Z,2.90
2022-09-27T18:22:01.946Z,5.40
2022-09-27T18:24:29.833Z,2.60
2022-09-27T18:26:59.657Z,3.08
2022-09-27T18:29:28.663Z,5.22
2022-09-27T18:31:57.952Z,5.05
2022-09-27T18:34:25.978Z,4.60
2022-09-27T18:36:53.890Z,4.00
2022-09-27T18:39:22.138Z,4.00
2022-09-27T18:41:50.804Z,2.20
2022-09-27T18:44:19.348Z,2.10
2022-09-27T18:46:47.595Z,3.85
2022-09-27T18:49:16.802Z,1.88
2022-09-27T18:51:46.918Z,2.35
2022-09-27T18:54:18.093Z,3.35
2022-09-27T18:56:46.879Z,4.20
2022-09-27T18:59:15.614Z,3.88
2022-09-27T19:01:46.192Z,4.10
2022-09-27T19:04:21.530Z,3.15
2022-09-27T19:06:51.891Z,2.83
2022-09-27T19:09:19.767Z,2.30
2022-09-27T19:11:47.765Z,2.53
2022-09-27T19:14:17.843Z,3.42
2022-09-27T19:16:47.120Z,3.00
2022-09-27T19:19:16.793Z,2.80
2022-09-27T19:21:46.502Z,3.83
2022-09-27T19:24:16.236Z,3.20
2022-09-27T19:26:44.294Z,3.03
2022-09-27T19:29:12.998Z,3.47
2022-09-27T19:31:42.071Z,4.07
2022-09-27T19:34:10.667Z,6.07
2022-09-27T19:36:38.588Z,4.88
2022-09-27T19:39:07.960Z,3.80
2022-09-27T19:41:35.803Z,5.28
2022-09-27T19:44:03.840Z,3.17
2022-09-27T19:46:31.758Z,3.63
2022-09-27T19:49:01.276Z,3.85
2022-09-27T19:51:30.179Z,2.30
2022-09-27T19:53:58.274Z,1.98
2022-09-27T19:56:27.559Z,4.28
2022-09-27T19:58:55.820Z,1.90
2022-09-27T20:01:25.032Z,2.67
2022-09-27T20:03:55.214Z,3.15
2022-09-27T20:06:23.158Z,4.70
2022-09-27T20:08:51.174Z,5.47
2022-09-27T20:11:20.413Z,4.00
2022-09-27T20:13:50.441Z,2.33
2022-09-27T20:16:20.770Z,4.07
2022-09-27T20:18:49.915Z,5.55
2022-09-27T20:21:19.027Z,3.92
2022-09-27T20:23:49.782Z,2.80
2022-09-27T20:26:19.486Z,3.08
2022-09-27T20:28:50.951Z,5.40
2022-09-27T20:31:20.546Z,2.65
2022-09-27T20:33:50.621Z,2.50
2022-09-27T20:36:20.432Z,3.17
2022-09-27T20:38:49.962Z,3.63
2022-09-27T20:41:20.199Z,3.60
2022-09-27T20:43:52.211Z,4.13
2022-09-27T20:46:21.622Z,2.60
2022-09-27T20:48:52.695Z,2.90
2022-09-27T20:51:21.196Z,4.40
2022-09-27T20:53:51.223Z,2.67
2022-09-27T20:56:21.726Z,3.60
2022-09-27T20:58:53.021Z,2.88
2022-09-27T21:01:21.941Z,2.22
2022-09-27T21:03:54.016Z,2.15
2022-09-27T21:06:23.771Z,4.93
2022-09-27T21:08:52.058Z,7.75
2022-09-27T21:11:20.639Z,8.27
2022-09-27T21:13:51.073Z,5.88
2022-09-27T21:16:20.739Z,8.90
2022-09-27T21:18:50.531Z,10.70
2022-09-27T21:21:19.349Z,9.75
2022-09-27T21:23:47.789Z,5.85
2022-09-27T21:26:17.081Z,7.22
2022-09-27T21:28:46.555Z,6.32
